Time;durP1;ratioP1;P1;durP2;ratioP2;P2;SDS_P1;SDS_P2;PMS_P1;PMS_P2;Temp;Humidity;BMP_temperature;BMP_pressure;BME280_temperature;BME280_humidity;BME280_pressure;Samples;Min_cycle;Max_cycle;Signal;HPM_P1;HPM_P2
2023/10/22 00:00:09;;;;;;;29.80;18.70;;;;;;;10.21;100.00;99598.45;105764;1260;73197;-82
2023/10/22 00:02:39;;;;;;;26.90;19.10;;;;;;;10.24;100.00;99591.04;106067;1256;61664;-77
2023/10/22 00:05:08;;;;;;;35.60;19.80;;;;;;;10.28;100.00;99587.85;106738;1256;59565;-78
2023/10/22 00:07:35;;;;;;;32.30;20.90;;;;;;;10.26;100.00;99582.21;106990;1256;72010;-78
2023/10/22 00:10:03;;;;;;;26.80;18.50;;;;;;;10.21;100.00;99572.39;106273;1256;69892;-79
2023/10/22 00:12:31;;;;;;;27.80;19.10;;;;;;;10.25;100.00;99575.88;105632;1261;72662;-76
2023/10/22 00:14:58;;;;;;;26.60;20.30;;;;;;;10.28;100.00;99573.27;105807;1256;60981;-77
2023/10/22 00:17:25;;;;;;;33.60;20.50;;;;;;;10.26;100.00;99573.14;105976;1255;60048;-78
2023/10/22 00:19:53;;;;;;;30.70;20.10;;;;;;;10.20;100.00;99566.29;105878;1256;73063;-79
2023/10/22 00:22:21;;;;;;;23.30;18.00;;;;;;;10.18;100.00;99566.20;106199;1259;69142;-81
2023/10/22 00:24:48;;;;;;;23.10;17.40;;;;;;;10.24;100.00;99564.32;106052;1263;71486;-78
2023/10/22 00:27:16;;;;;;;25.40;18.40;;;;;;;10.30;100.00;99561.08;106088;1259;60225;-78
2023/10/22 00:29:44;;;;;;;27.00;18.60;;;;;;;10.28;100.00;99556.32;105841;1255;59689;-79
2023/10/22 00:32:11;;;;;;;26.90;17.90;;;;;;;10.20;100.00;99557.86;105599;1261;70530;-80
2023/10/22 00:34:39;;;;;;;24.70;16.80;;;;;;;10.24;100.00;99561.14;105768;1260;69349;-79
2023/10/22 00:37:07;;;;;;;27.80;20.00;;;;;;;10.28;100.00;99552.20;105757;1260;70344;-77
2023/10/22 00:39:35;;;;;;;29.60;19.40;;;;;;;10.29;100.00;99550.14;105636;1261;59762;-78
2023/10/22 00:42:02;;;;;;;23.60;17.20;;;;;;;10.26;100.00;99545.30;105532;1258;59620;-77
2023/10/22 00:44:30;;;;;;;23.60;17.40;;;;;;;10.30;100.00;99550.38;105566;1262;73922;-75
2023/10/22 00:46:58;;;;;;;28.20;18.50;;;;;;;10.34;100.00;99551.25;105661;1260;69032;-76
2023/10/22 00:49:25;;;;;;;28.60;18.10;;;;;;;10.32;100.00;99557.65;105491;1256;72664;-76
2023/10/22 00:51:53;;;;;;;23.70;16.90;;;;;;;10.30;100.00;99561.70;105627;1256;60390;-75
2023/10/22 00:54:20;;;;;;;23.80;17.30;;;;;;;10.35;100.00;99561.04;105416;1256;59821;-77
2023/10/22 00:56:48;;;;;;;25.10;18.00;;;;;;;10.34;100.00;99561.77;105449;1256;73098;-79
2023/10/22 00:59:15;;;;;;;21.30;16.70;;;;;;;10.28;100.00;99560.48;105687;1262;70040;-74
2023/10/22 01:01:43;;;;;;;23.70;17.60;;;;;;;10.22;100.00;99560.42;105443;1257;72918;-77
2023/10/22 01:04:11;;;;;;;24.60;17.00;;;;;;;10.23;100.00;99559.27;105639;1260;60448;-77
2023/10/22 01:06:38;;;;;;;25.50;17.20;;;;;;;10.24;100.00;99553.67;105730;1258;60010;-78
2023/10/22 01:09:09;;;;;;;23.90;17.40;;;;;;;10.23;100.00;99552.36;105728;1260;73053;-80
2023/10/22 01:12:00;;;;;;;22.20;17.20;;;;;;;10.20;100.00;99550.14;106063;1256;70239;-76
2023/10/22 01:14:29;;;;;;;22.10;16.40;;;;;;;10.21;100.00;99562.51;106238;1259;70352;-78
2023/10/22 01:16:56;;;;;;;29.40;19.00;;;;;;;10.23;100.00;99592.50;106204;1256;59611;-80
2023/10/22 01:19:24;;;;;;;28.90;17.80;;;;;;;10.21;100.00;99581.98;105956;1260;60076;-82
2023/10/22 01:21:51;;;;;;;21.70;16.80;;;;;;;10.19;100.00;99582.58;105829;1256;73038;-80
2023/10/22 01:24:19;;;;;;;20.20;15.40;;;;;;;10.25;100.00;99586.33;105758;1260;69478;-79
2023/10/22 01:26:47;;;;;;;22.20;15.90;;;;;;;10.29;100.00;99580.73;105680;1256;71767;-81
2023/10/22 01:29:15;;;;;;;20.10;14.60;;;;;;;10.27;100.00;99585.42;105585;1260;60646;-78
2023/10/22 01:31:42;;;;;;;23.70;15.70;;;;;;;10.27;100.00;99582.93;105640;1263;59641;-80
2023/10/22 01:34:10;;;;;;;24.80;16.20;;;;;;;10.33;100.00;99585.16;105790;1261;71877;-79
2023/10/22 01:36:37;;;;;;;24.80;16.30;;;;;;;10.32;100.00;99590.83;107159;1261;70128;-80
2023/10/22 01:39:05;;;;;;;19.00;14.10;;;;;;;10.30;100.00;99584.73;107583;1258;71415;-83
2023/10/22 01:41:33;;;;;;;18.50;14.20;;;;;;;10.34;100.00;99586.55;106624;1260;61657;-78
2023/10/22 01:44:00;;;;;;;20.70;13.60;;;;;;;10.38;100.00;99594.16;106402;1258;59548;-81
2023/10/22 01:46:28;;;;;;;24.90;15.00;;;;;;;10.36;100.00;99589.95;105910;1255;71794;-84
2023/10/22 01:48:57;;;;;;;18.80;13.40;;;;;;;10.31;100.00;99589.88;105887;1260;69968;-83
2023/10/22 01:51:24;;;;;;;19.40;13.90;;;;;;;10.34;100.00;99585.88;105941;1258;73402;-80
2023/10/22 01:53:52;;;;;;;18.10;13.60;;;;;;;10.39;100.00;99586.62;105505;1258;60046;-82
2023/10/22 01:56:19;;;;;;;19.80;15.70;;;;;;;10.40;100.00;99588.20;105574;1262;59584;-84
2023/10/22 01:58:47;;;;;;;22.60;14.30;;;;;;;10.39;100.00;99588.50;105646;1256;73033;-80
2023/10/22 02:01:16;;;;;;;22.10;15.00;;;;;;;10.46;100.00;99588.28;106052;1256;69047;-85
2023/10/22 02:03:47;;;;;;;25.80;15.60;;;;;;;10.50;100.00;99593.65;106165;1256;72467;-86
2023/10/22 02:06:15;;;;;;;20.70;16.30;;;;;;;10.43;100.00;99589.12;106148;1256;60138;-80
2023/10/22 02:08:42;;;;;;;18.70;15.40;;;;;;;10.40;100.00;99592.32;106104;1256;59510;-82
2023/10/22 02:11:10;;;;;;;20.70;14.80;;;;;;;10.45;100.00;99588.42;105883;1256;71909;-85
2023/10/22 02:13:38;;;;;;;22.00;16.50;;;;;;;10.49;100.00;99591.69;106187;1256;69239;-81
2023/10/22 02:16:05;;;;;;;26.30;16.20;;;;;;;10.48;100.00;99587.02;107519;1257;71636;-81
2023/10/22 02:18:34;;;;;;;24.40;16.40;;;;;;;10.45;100.00;99593.49;107301;1256;60424;-82
2023/10/22 02:21:05;;;;;;;19.20;15.10;;;;;;;10.49;100.00;99588.48;108286;1260;59521;-80
2023/10/22 02:23:34;;;;;;;29.40;16.20;;;;;;;10.54;100.00;99591.08;107450;1260;73028;-80
2023/10/22 02:26:03;;;;;;;29.50;16.70;;;;;;;10.53;100.00;99588.96;105698;1262;68735;-80
2023/10/22 02:28:32;;;;;;;28.30;16.50;;;;;;;10.48;100.00;99590.73;105896;1260;72707;-79
2023/10/22 02:31:00;;;;;;;20.50;15.40;;;;;;;10.52;100.00;99590.49;105872;1255;61819;-81
2023/10/22 02:33:27;;;;;;;18.70;15.20;;;;;;;10.58;100.00;99583.56;105446;1261;60031;-81
2023/10/22 02:35:55;;;;;;;25.80;17.90;;;;;;;10.54;100.00;99579.80;105722;1260;71744;-82
2023/10/22 02:38:22;;;;;;;23.90;16.00;;;;;;;10.48;100.00;99584.52;105661;1260;69488;-80
2023/10/22 02:40:50;;;;;;;19.60;14.00;;;;;;;10.51;100.00;99578.48;105632;1256;72764;-79
2023/10/22 02:43:17;;;;;;;22.90;16.80;;;;;;;10.57;100.00;99571.48;105514;1260;60509;-82
2023/10/22 02:45:52;;;;;;;27.30;17.40;;;;;;;10.58;100.00;99576.33;105566;1256;59778;-81
2023/10/22 02:48:19;;;;;;;20.10;16.10;;;;;;;10.55;100.00;99577.86;105738;1260;72939;-82
2023/10/22 02:50:47;;;;;;;22.70;15.40;;;;;;;10.57;100.00;99573.61;105697;1261;68889;-80
2023/10/22 02:53:15;;;;;;;22.90;16.40;;;;;;;10.61;100.00;99578.27;105757;1261;72141;-83
2023/10/22 02:55:43;;;;;;;19.00;14.50;;;;;;;10.58;100.00;99583.53;106974;1258;59621;-80
2023/10/22 02:58:10;;;;;;;21.00;15.40;;;;;;;10.57;100.00;99573.61;106461;1258;59338;-80
2023/10/22 03:00:38;;;;;;;21.70;14.90;;;;;;;10.59;100.00;99574.77;106557;1256;72967;-77
2023/10/22 03:03:06;;;;;;;27.10;15.30;;;;;;;10.57;100.00;99567.02;106818;1256;70179;-79
2023/10/22 03:05:33;;;;;;;19.30;14.80;;;;;;;10.55;100.00;99556.88;105837;1262;71800;-76
2023/10/22 03:08:03;;;;;;;23.80;15.10;;;;;;;10.60;100.00;99553.43;107569;1256;60437;-81
2023/10/22 03:10:35;;;;;;;24.60;14.80;;;;;;;10.65;100.00;99554.83;106698;1260;61089;-81
2023/10/22 03:13:03;;;;;;;21.40;15.60;;;;;;;10.63;100.00;99545.61;105949;1263;75637;-80
2023/10/22 03:15:30;;;;;;;22.60;14.90;;;;;;;10.60;100.00;99543.65;106870;1260;68987;-78
2023/10/22 03:17:58;;;;;;;17.50;13.40;;;;;;;10.65;100.00;99551.79;106755;1258;71440;-80
2023/10/22 03:20:25;;;;;;;18.70;14.70;;;;;;;10.67;100.00;99544.01;107137;1258;59705;-78
2023/10/22 03:22:53;;;;;;;22.00;15.40;;;;;;;10.64;100.00;99542.85;106555;1257;60075;-78
2023/10/22 03:25:24;;;;;;;18.20;13.80;;;;;;;10.63;100.00;99539.94;106532;1255;71998;-81
2023/10/22 03:27:51;;;;;;;16.40;13.70;;;;;;;10.70;100.00;99545.39;106750;1257;70207;-79
2023/10/22 03:30:19;;;;;;;18.60;13.70;;;;;;;10.75;100.00;99545.59;106487;1262;71408;-81
2023/10/22 03:32:46;;;;;;;20.70;15.00;;;;;;;10.71;100.00;99539.67;106344;1256;60509;-84
2023/10/22 03:35:16;;;;;;;18.90;14.20;;;;;;;10.66;100.00;99537.86;106200;1256;60626;-83
2023/10/22 03:37:43;;;;;;;16.50;12.20;;;;;;;10.71;100.00;99536.41;106165;1254;73106;-80
2023/10/22 03:40:11;;;;;;;20.10;13.70;;;;;;;10.76;100.00;99530.50;106225;1263;69188;-80
2023/10/22 03:42:38;;;;;;;21.50;14.90;;;;;;;10.73;100.00;99529.63;106279;1254;72571;-80
2023/10/22 03:45:07;;;;;;;19.20;15.10;;;;;;;10.70;100.00;99530.41;105876;1257;61718;-82
2023/10/22 03:47:35;;;;;;;16.80;13.10;;;;;;;10.72;100.00;99529.48;105838;1254;61143;-83
2023/10/22 03:50:03;;;;;;;21.20;13.50;;;;;;;10.77;100.00;99531.17;105610;1259;72665;-83
2023/10/22 03:52:30;;;;;;;22.10;15.90;;;;;;;10.75;100.00;99530.02;106078;1260;68991;-81
2023/10/22 03:54:59;;;;;;;16.20;13.90;;;;;;;10.70;100.00;99534.23;105896;1259;72601;-82
2023/10/22 03:57:27;;;;;;;19.60;13.90;;;;;;;10.74;100.00;99540.55;105842;1254;62219;-82
2023/10/22 03:59:55;;;;;;;18.20;15.00;;;;;;;10.76;100.00;99542.20;105658;1259;60335;-83
2023/10/22 04:02:23;;;;;;;29.30;16.20;;;;;;;10.74;100.00;99541.91;105686;1255;73001;-80
2023/10/22 04:04:50;;;;;;;16.90;13.40;;;;;;;10.70;100.00;99547.16;105859;1258;70026;-81
2023/10/22 04:07:19;;;;;;;20.00;14.20;;;;;;;10.71;100.00;99545.13;105729;1254;74137;-80
2023/10/22 04:09:46;;;;;;;25.00;15.40;;;;;;;10.71;100.00;99542.83;105850;1257;60560;-79
2023/10/22 04:12:14;;;;;;;23.00;15.80;;;;;;;10.66;100.00;99546.45;105930;1257;60513;-81
2023/10/22 04:14:42;;;;;;;19.10;15.90;;;;;;;10.65;100.00;99547.80;106119;1261;73871;-78
2023/10/22 04:17:09;;;;;;;26.20;14.50;;;;;;;10.70;100.00;99545.82;105919;1260;69856;-78
2023/10/22 04:19:37;;;;;;;21.80;16.00;;;;;;;10.73;100.00;99537.14;105889;1260;71450;-78
2023/10/22 04:22:04;;;;;;;17.50;15.10;;;;;;;10.69;100.00;99531.70;105616;1254;60419;-80
2023/10/22 04:24:32;;;;;;;18.20;15.20;;;;;;;10.64;100.00;99534.89;105659;1254;61215;-77
2023/10/22 04:26:59;;;;;;;17.90;16.00;;;;;;;10.66;100.00;99534.70;105639;1269;73878;-77
2023/10/22 04:29:26;;;;;;;20.10;17.20;;;;;;;10.66;100.00;99537.00;105710;1254;70321;-77
2023/10/22 04:31:54;;;;;;;19.60;15.20;;;;;;;10.60;100.00;99536.27;105751;1260;73684;-76
2023/10/22 04:34:21;;;;;;;23.00;17.30;;;;;;;10.62;100.00;99538.26;105911;1258;60702;-76
2023/10/22 04:36:49;;;;;;;21.30;14.70;;;;;;;10.65;100.00;99536.25;106029;1254;60457;-77
2023/10/22 04:39:16;;;;;;;22.70;16.80;;;;;;;10.67;100.00;99537.14;106894;1254;73137;-76
2023/10/22 04:41:44;;;;;;;21.10;17.30;;;;;;;10.64;100.00;99531.86;106175;1260;68596;-78
2023/10/22 04:44:11;;;;;;;20.90;15.10;;;;;;;10.67;100.00;99524.31;105657;1260;71550;-78
2023/10/22 04:46:39;;;;;;;21.50;16.00;;;;;;;10.74;100.00;99517.34;105661;1257;61376;-77
2023/10/22 04:49:06;;;;;;;25.50;18.60;;;;;;;10.76;100.00;99523.23;105688;1257;60528;-77
2023/10/22 04:51:39;;;;;;;26.80;16.80;;;;;;;10.74;100.00;99519.96;105630;1260;73832;-77
2023/10/22 04:54:06;;;;;;;24.30;17.10;;;;;;;10.78;100.00;99524.83;105719;1255;70201;-80
2023/10/22 04:56:34;;;;;;;20.20;15.00;;;;;;;10.79;100.00;99518.17;105737;1256;71653;-79
2023/10/22 04:59:01;;;;;;;23.30;17.80;;;;;;;10.79;100.00;99525.05;105692;1254;60517;-80
2023/10/22 05:01:29;;;;;;;22.10;17.50;;;;;;;10.77;100.00;99528.48;105838;1259;60455;-77
2023/10/22 05:03:56;;;;;;;21.90;16.60;;;;;;;10.77;100.00;99523.33;105636;1254;73950;-80
2023/10/22 05:06:24;;;;;;;22.90;16.10;;;;;;;10.85;100.00;99526.05;105969;1259;68763;-81
2023/10/22 05:08:52;;;;;;;21.00;16.60;;;;;;;10.89;100.00;99534.19;107316;1254;71516;-82
2023/10/22 05:11:20;;;;;;;25.50;16.40;;;;;;;10.88;100.00;99530.64;107279;1254;60113;-79
2023/10/22 05:13:47;;;;;;;21.60;16.40;;;;;;;10.86;100.00;99528.64;106252;1256;60432;-79
2023/10/22 05:16:15;;;;;;;19.50;15.60;;;;;;;10.93;100.00;99525.96;106358;1255;72558;-80
2023/10/22 05:18:42;;;;;;;23.90;17.30;;;;;;;10.97;100.00;99527.33;106525;1260;69553;-79
2023/10/22 05:21:10;;;;;;;22.20;17.00;;;;;;;10.96;100.00;99532.06;106868;1260;72585;-84
2023/10/22 05:23:38;;;;;;;18.20;15.50;;;;;;;10.94;100.00;99545.76;105868;1254;60719;-82
2023/10/22 05:26:11;;;;;;;19.70;15.40;;;;;;;10.95;100.00;99548.28;106261;1259;60459;-81
2023/10/22 05:28:39;;;;;;;27.80;16.40;;;;;;;11.00;100.00;99554.56;106446;1264;71831;-81
2023/10/22 05:31:18;;;;;;;23.10;15.90;;;;;;;10.99;100.00;99553.64;106544;1254;69932;-79
2023/10/22 05:33:46;;;;;;;21.90;15.40;;;;;;;10.98;100.00;99551.64;106935;1254;72714;-80
2023/10/22 05:36:18;;;;;;;20.70;15.90;;;;;;;11.00;100.00;99554.89;106558;1260;60731;-82
2023/10/22 05:38:46;;;;;;;26.20;18.60;;;;;;;11.03;100.00;99558.17;106515;1260;60367;-77
2023/10/22 05:41:21;;;;;;;22.20;16.70;;;;;;;11.02;100.00;99564.25;106440;1258;73967;-78
2023/10/22 05:43:55;;;;;;;21.70;16.90;;;;;;;11.09;100.00;99569.45;105881;1258;70568;-81
2023/10/22 05:46:23;;;;;;;20.80;16.00;;;;;;;11.17;100.00;99572.80;105862;1257;71940;-80
2023/10/22 05:48:51;;;;;;;22.60;17.20;;;;;;;11.18;100.00;99568.60;105692;1259;60531;-80
2023/10/22 05:51:19;;;;;;;24.10;16.60;;;;;;;11.11;100.00;99571.90;105805;1254;60497;-80
2023/10/22 05:53:46;;;;;;;20.90;15.90;;;;;;;11.07;100.00;99570.07;105811;1254;72656;-84
2023/10/22 05:56:15;;;;;;;17.50;14.70;;;;;;;11.09;100.00;99573.29;105867;1254;69000;-74
2023/10/22 05:58:43;;;;;;;22.30;16.20;;;;;;;11.09;100.00;99573.45;105774;1257;72753;-74
2023/10/22 06:01:10;;;;;;;26.40;18.10;;;;;;;11.04;100.00;99576.83;105820;1255;60458;-74
2023/10/22 06:03:38;;;;;;;20.40;15.80;;;;;;;10.99;100.00;99589.02;105793;1256;60494;-74
2023/10/22 06:06:06;;;;;;;20.90;15.00;;;;;;;11.01;100.00;99589.21;105622;1257;73964;-74
2023/10/22 06:08:33;;;;;;;22.90;16.10;;;;;;;11.02;100.00;99590.67;105855;1261;70129;-76
2023/10/22 06:11:02;;;;;;;21.30;15.50;;;;;;;11.02;100.00;99600.23;105787;1260;71809;-74
2023/10/22 06:13:31;;;;;;;25.60;16.10;;;;;;;10.99;100.00;99600.55;105728;1254;60453;-75
2023/10/22 06:15:59;;;;;;;19.80;16.40;;;;;;;10.96;100.00;99592.10;106010;1259;60322;-80
2023/10/22 06:18:27;;;;;;;20.50;14.60;;;;;;;10.97;100.00;99606.64;106006;1254;73054;-78
2023/10/22 06:20:54;;;;;;;20.90;14.00;;;;;;;10.99;100.00;99603.70;105949;1257;70510;-80
2023/10/22 06:23:22;;;;;;;26.80;14.70;;;;;;;11.01;100.00;99605.98;106157;1257;71448;-80
2023/10/22 06:25:49;;;;;;;19.60;14.90;;;;;;;11.00;100.00;99602.44;106092;1260;61755;-77
2023/10/22 06:28:16;;;;;;;20.20;15.10;;;;;;;10.98;100.00;99600.48;105963;1258;60459;-79
2023/10/22 06:30:44;;;;;;;22.60;16.30;;;;;;;10.95;100.00;99593.98;105855;1257;73902;-78
2023/10/22 06:33:12;;;;;;;26.30;17.10;;;;;;;10.97;100.00;99585.77;105691;1258;69158;-80
2023/10/22 06:35:39;;;;;;;22.60;17.10;;;;;;;11.00;100.00;99579.77;105715;1259;70866;-79
2023/10/22 06:38:07;;;;;;;24.20;17.00;;;;;;;11.03;100.00;99581.56;105747;1260;61652;-79
2023/10/22 06:40:36;;;;;;;26.70;19.10;;;;;;;11.09;100.00;99579.42;106000;1254;60724;-81
2023/10/22 06:43:04;;;;;;;25.20;17.80;;;;;;;11.15;100.00;99574.80;106400;1253;76115;-79
2023/10/22 06:45:32;;;;;;;25.00;17.80;;;;;;;11.22;100.00;99576.16;106421;1257;68718;-80
2023/10/22 06:47:59;;;;;;;28.90;18.30;;;;;;;11.23;100.00;99572.01;106401;1261;70408;-82
2023/10/22 06:50:27;;;;;;;28.30;17.40;;;;;;;11.25;100.00;99569.20;106881;1254;62106;-81
2023/10/22 06:52:54;;;;;;;29.50;19.40;;;;;;;11.27;100.00;99567.27;106158;1254;60401;-79
2023/10/22 06:55:21;;;;;;;24.80;18.20;;;;;;;11.29;100.00;99569.73;105905;1259;72660;-78
2023/10/22 06:57:49;;;;;;;26.90;19.60;;;;;;;11.35;100.00;99578.60;105752;1257;68931;-82
2023/10/22 07:00:17;;;;;;;30.30;20.20;;;;;;;11.39;100.00;99571.88;105723;1261;72789;-80
2023/10/22 07:02:46;;;;;;;28.80;18.70;;;;;;;11.41;100.00;99572.40;105671;1261;60515;-81
2023/10/22 07:05:14;;;;;;;31.90;19.60;;;;;;;11.37;100.00;99568.98;105669;1254;59887;-80
2023/10/22 07:07:43;;;;;;;27.10;19.40;;;;;;;11.37;100.00;99565.92;106224;1254;73818;-81
2023/10/22 07:10:10;;;;;;;30.60;19.30;;;;;;;11.39;100.00;99562.31;106217;1254;70142;-82
2023/10/22 07:12:38;;;;;;;29.80;19.60;;;;;;;11.39;100.00;99550.59;105700;1260;73262;-81
2023/10/22 07:15:09;;;;;;;31.40;20.10;;;;;;;11.37;100.00;99547.09;106421;1254;62589;-82
2023/10/22 07:17:36;;;;;;;28.70;19.20;;;;;;;11.40;100.00;99543.25;106438;1254;60575;-79
2023/10/22 07:20:06;;;;;;;29.00;20.20;;;;;;;11.46;100.00;99544.34;106187;1255;76119;-80
2023/10/22 07:22:33;;;;;;;32.50;21.90;;;;;;;11.50;100.00;99539.73;105917;1254;70071;-80
2023/10/22 07:25:01;;;;;;;41.30;24.40;;;;;;;11.57;100.00;99540.59;105782;1257;72521;-81
2023/10/22 07:27:28;;;;;;;32.20;20.80;;;;;;;11.61;100.00;99541.64;105793;1260;60495;-81
2023/10/22 07:29:56;;;;;;;29.80;21.50;;;;;;;11.70;100.00;99539.28;105722;1260;60978;-81
2023/10/22 07:32:23;;;;;;;33.60;22.80;;;;;;;11.77;100.00;99536.81;105614;1254;74146;-79
2023/10/22 07:34:51;;;;;;;39.90;24.70;;;;;;;11.83;100.00;99532.90;106394;1254;67792;-79
2023/10/22 07:37:19;;;;;;;33.20;22.10;;;;;;;11.85;100.00;99530.60;106035;1254;72135;-82
2023/10/22 07:39:46;;;;;;;35.90;24.00;;;;;;;11.86;100.00;99527.08;106555;1262;60571;-79
2023/10/22 07:42:14;;;;;;;33.30;24.30;;;;;;;11.89;100.00;99526.52;106378;1254;60560;-78
2023/10/22 07:44:43;;;;;;;43.60;25.50;;;;;;;11.92;100.00;99522.98;106091;1254;73861;-81
2023/10/22 07:47:11;;;;;;;39.30;24.80;;;;;;;11.89;100.00;99521.95;106061;1256;69769;-80
2023/10/22 07:49:40;;;;;;;35.00;23.70;;;;;;;11.92;100.00;99521.11;105921;1256;72690;-81
2023/10/22 07:52:39;;;;;;;36.20;24.90;;;;;;;11.92;100.00;99512.74;107570;1254;59851;-80
2023/10/22 07:55:07;;;;;;;43.70;26.80;;;;;;;11.96;100.00;99514.89;106639;1259;60550;-79
2023/10/22 07:57:35;;;;;;;38.70;25.10;;;;;;;12.01;100.00;99508.25;106266;1254;72646;-78
2023/10/22 08:00:06;;;;;;;40.90;26.60;;;;;;;12.06;100.00;99509.80;106218;1254;69933;-80
2023/10/22 08:02:38;;;;;;;39.00;26.60;;;;;;;12.07;100.00;99514.83;106045;1257;72668;-78
2023/10/22 08:05:06;;;;;;;39.60;28.00;;;;;;;12.09;100.00;99517.84;106155;1263;61811;-76
2023/10/22 08:07:33;;;;;;;45.90;30.00;;;;;;;12.11;100.00;99507.25;106327;1254;60539;-78
2023/10/22 08:10:01;;;;;;;45.30;29.90;;;;;;;12.07;100.00;99497.77;106066;1254;72476;-79
2023/10/22 08:12:29;;;;;;;47.10;30.20;;;;;;;12.09;100.00;99498.29;105961;1260;70907;-80
2023/10/22 08:14:57;;;;;;;44.40;29.10;;;;;;;12.14;100.00;99490.94;105906;1263;72924;-78
2023/10/22 08:17:25;;;;;;;48.30;30.50;;;;;;;12.19;100.00;99492.48;106179;1255;61722;-80
2023/10/22 08:19:52;;;;;;;44.60;28.70;;;;;;;12.21;100.00;99489.73;105855;1254;60362;-80
2023/10/22 08:22:20;;;;;;;44.60;29.70;;;;;;;12.24;100.00;99490.05;105625;1254;72565;-79
2023/10/22 08:24:48;;;;;;;45.90;30.40;;;;;;;12.30;100.00;99488.52;105921;1254;70102;-81
2023/10/22 08:27:16;;;;;;;45.30;29.10;;;;;;;12.29;100.00;99485.02;106191;1254;72679;-79
2023/10/22 08:29:47;;;;;;;49.80;31.30;;;;;;;12.31;100.00;99481.04;105811;1258;62501;-78
2023/10/22 08:32:14;;;;;;;47.90;29.80;;;;;;;12.36;100.00;99477.84;105755;1254;60365;-77
2023/10/22 08:34:42;;;;;;;54.80;33.10;;;;;;;12.36;100.00;99471.77;105812;1254;71568;-78
2023/10/22 08:37:09;;;;;;;47.60;31.40;;;;;;;12.37;100.00;99466.48;105677;1254;70296;-77
2023/10/22 08:39:37;;;;;;;49.90;31.80;;;;;;;12.40;100.00;99467.59;105795;1254;72692;-79
2023/10/22 08:42:09;;;;;;;51.50;32.00;;;;;;;12.41;100.00;99461.09;106049;1261;63968;-79
2023/10/22 08:44:44;;;;;;;47.40;31.90;;;;;;;12.43;100.00;99462.11;106263;1254;60319;-81
2023/10/22 08:47:12;;;;;;;54.70;36.50;;;;;;;12.47;100.00;99458.00;105689;1260;74022;-81
2023/10/22 08:49:40;;;;;;;53.60;33.80;;;;;;;12.52;100.00;99453.88;105662;1256;70188;-81
2023/10/22 08:52:08;;;;;;;56.10;33.10;;;;;;;12.56;100.00;99445.05;105648;1260;71485;-80
2023/10/22 08:54:37;;;;;;;52.00;33.80;;;;;;;12.67;100.00;99443.62;105781;1260;60471;-81
2023/10/22 08:57:05;;;;;;;50.80;34.00;;;;;;;12.75;100.00;99437.63;106123;1254;60515;-77
2023/10/22 08:59:37;;;;;;;49.60;33.20;;;;;;;12.80;100.00;99430.70;106077;1258;72837;-79
2023/10/22 09:02:12;;;;;;;56.40;36.20;;;;;;;12.84;100.00;99422.95;105988;1259;70871;-80
2023/10/22 09:04:39;;;;;;;59.00;36.00;;;;;;;12.88;100.00;99419.38;105898;1255;71439;-80
2023/10/22 09:07:08;;;;;;;56.30;36.30;;;;;;;12.92;100.00;99416.92;105997;1259;60422;-76
2023/10/22 09:09:37;;;;;;;50.20;34.10;;;;;;;12.96;100.00;99410.39;106420;1258;60649;-78
2023/10/22 09:12:08;;;;;;;52.40;34.90;;;;;;;13.02;100.00;99406.76;106006;1254;73767;-78
2023/10/22 09:14:36;;;;;;;52.50;34.50;;;;;;;13.05;100.00;99394.55;106003;1258;71211;-79
2023/10/22 09:17:17;;;;;;;47.60;32.70;;;;;;;13.07;100.00;99391.48;105718;1262;70972;-78
2023/10/22 09:19:48;;;;;;;52.80;35.50;;;;;;;13.06;100.00;99389.35;105904;1260;59175;-78
2023/10/22 09:22:23;;;;;;;59.70;36.10;;;;;;;13.03;100.00;99388.05;106097;1258;60429;-80
2023/10/22 09:24:55;;;;;;;53.40;35.00;;;;;;;13.05;100.00;99381.42;105831;1263;73843;-80
2023/10/22 09:27:27;;;;;;;53.00;34.60;;;;;;;13.05;100.00;99377.41;105721;1255;70118;-80
2023/10/22 09:30:00;;;;;;;59.50;36.90;;;;;;;13.10;100.00;99368.83;105936;1254;72634;-80
2023/10/22 09:32:28;;;;;;;53.90;35.30;;;;;;;13.13;100.00;99366.84;106041;1257;60490;-81
2023/10/22 09:35:13;;;;;;;47.80;34.00;;;;;;;13.21;100.00;99370.49;105980;1254;60361;-78
2023/10/22 09:37:51;;;;;;;57.50;38.50;;;;;;;13.29;100.00;99372.97;105969;1254;73055;-79
2023/10/22 09:40:26;;;;;;;56.90;37.00;;;;;;;13.32;100.00;99375.91;105813;1259;69458;-80
2023/10/22 09:42:55;;;;;;;57.20;35.80;;;;;;;13.36;100.00;99366.98;105789;1255;72683;-79
2023/10/22 09:45:23;;;;;;;52.50;35.60;;;;;;;13.44;100.00;99366.13;106064;1254;60395;-80
2023/10/22 09:47:54;;;;;;;51.80;35.80;;;;;;;13.48;100.00;99363.34;107191;1254;60340;-78
2023/10/22 09:50:45;;;;;;;51.80;35.30;;;;;;;13.50;100.00;99355.83;107602;1254;72675;-79
2023/10/22 09:53:16;;;;;;;51.80;36.20;;;;;;;13.53;100.00;99351.66;107082;1254;68697;-80
2023/10/22 09:55:45;;;;;;;57.60;38.60;;;;;;;13.53;100.00;99350.18;107246;1256;71764;-78
2023/10/22 09:58:16;;;;;;;51.70;37.30;;;;;;;13.47;100.00;99346.55;106556;1254;61798;-79
2023/10/22 10:00:46;;;;;;;56.00;37.50;;;;;;;13.50;100.00;99344.42;106435;1255;60411;-79
2023/10/22 10:03:20;;;;;;;59.50;40.10;;;;;;;13.53;100.00;99344.23;106953;1254;72898;-80
2023/10/22 10:05:49;;;;;;;52.10;36.10;;;;;;;13.50;100.00;99338.70;107496;1256;71409;-80
2023/10/22 10:08:17;;;;;;;52.50;35.50;;;;;;;13.50;100.00;99339.90;107386;1254;74491;-78
2023/10/22 10:10:48;;;;;;;57.10;38.70;;;;;;;13.56;100.00;99338.79;107959;1254;60415;-79
2023/10/22 10:13:15;;;;;;;55.50;38.20;;;;;;;13.62;100.00;99338.13;108194;1255;58928;-79
2023/10/22 10:15:45;;;;;;;55.60;38.40;;;;;;;13.68;100.00;99329.44;107998;1256;73904;-80
2023/10/22 10:18:14;;;;;;;59.00;41.00;;;;;;;13.82;100.00;99327.89;107832;1254;68756;-80
2023/10/22 10:20:43;;;;;;;57.00;39.60;;;;;;;13.92;100.00;99321.58;107974;1256;71283;-79
2023/10/22 10:23:12;;;;;;;51.30;35.40;;;;;;;13.93;100.00;99317.06;107247;1256;60519;-80
2023/10/22 10:25:41;;;;;;;56.40;37.50;;;;;;;14.00;99.99;99307.76;107348;1260;60528;-79
2023/10/22 10:28:09;;;;;;;58.60;38.60;;;;;;;14.03;99.91;99307.11;107415;1256;73746;-80
2023/10/22 10:30:37;;;;;;;55.00;38.90;;;;;;;14.06;99.60;99302.07;107474;1255;67714;-80
2023/10/22 10:33:07;;;;;;;57.20;38.80;;;;;;;14.03;99.28;99298.92;106979;1259;70465;-78
2023/10/22 10:35:48;;;;;;;54.40;37.60;;;;;;;14.03;99.18;99294.20;106768;1254;60378;-77
2023/10/22 10:38:18;;;;;;;57.30;40.00;;;;;;;14.03;99.00;99294.48;106712;1254;60540;-77
2023/10/22 10:40:53;;;;;;;55.40;37.30;;;;;;;14.00;98.78;99292.18;107369;1254;72585;-77
2023/10/22 10:44:00;;;;;;;53.00;35.50;;;;;;;14.01;99.03;99282.03;108596;1254;68698;-79
2023/10/22 10:46:27;;;;;;;54.80;38.40;;;;;;;14.07;99.14;99277.20;107222;1260;72757;-78
2023/10/22 10:48:55;;;;;;;47.00;33.10;;;;;;;14.09;99.77;99274.58;107070;1258;60797;-78
2023/10/22 10:51:24;;;;;;;52.40;34.40;;;;;;;14.19;99.23;99266.39;106468;1255;60408;-77
2023/10/22 10:54:12;;;;;;;49.60;35.80;;;;;;;14.26;98.74;99273.98;106532;1254;73918;-77
2023/10/22 10:56:53;;;;;;;50.00;33.50;;;;;;;14.27;98.22;99291.84;106453;1254;70211;-75
2023/10/22 10:59:31;;;;;;;50.00;35.30;;;;;;;14.31;98.12;99285.39;106369;1254;71394;-77
2023/10/22 11:02:02;;;;;;;49.40;38.50;;;;;;;14.33;98.26;99276.63;106255;1260;60523;-76
2023/10/22 11:04:30;;;;;;;47.00;33.90;;;;;;;14.33;98.42;99273.30;106400;1258;60335;-79
2023/10/22 11:06:58;;;;;;;45.40;34.00;;;;;;;14.39;97.85;99275.45;106333;1254;72557;-75
2023/10/22 11:09:46;;;;;;;52.50;36.00;;;;;;;14.45;97.25;99268.02;106439;1254;69317;-79